Estación Meteorológica Peña el Pijo (Robertgarden) [ 01/30/23 14:19:12 CET ]

Fecha Hora Presion(HPa) Temp (°C) Humedad % Rocio (°C) Viento ( m/s) Direccion Lluvia 1Hora(mm) Lluvia 24H(mm) LLuvia Total(mm)
2012-Nov-30 01:01:15 999.800 -0.1 71 -4.7         178.19
2012-Nov-30 02:01:48 998.900 -0.7 73 -5.0         178.19
2012-Nov-30 03:05:22 998.000 -0.8 75 -4.7         178.19
2012-Nov-30 04:01:16 997.200 -0.9 77 -4.4         178.19
2012-Nov-30 05:01:13 996.600 -1.5 78 -4.8         178.19
2012-Nov-30 06:01:19 996.000 -2.1 81 -4.9         178.19
2012-Nov-30 07:01:11 995.700 -2.6 83 -5.1         178.19
2012-Nov-30 08:01:17 995.900 -3.3 85 -5.5         178.19
2012-Nov-30 09:01:14 995.500 -2.4 87 -4.3         178.19
2012-Nov-30 10:01:19 995.800 1.6 81 -1.3         178.19
2012-Nov-30 11:01:17 995.600 3.9 69 -1.3         178.19
2012-Nov-30 12:01:13 994.900 4.3 63 -2.2         178.19
2012-Nov-30 13:01:18 994.300 3.9 63 -2.6         178.19
2012-Nov-30 14:01:12 993.700 3.9 62 -2.8         178.19
2012-Nov-30 15:01:15 993.100 4.6 57 -3.2         178.19
2012-Nov-30 16:01:12 992.900 4.3 57 -3.5         178.19
2012-Nov-30 17:01:11 992.800 3.2 59 -4.1         178.19
2012-Nov-30 18:01:16 993.000 0.6 66 -5.1         178.19
2012-Nov-30 19:01:11 993.400 -1.5 75 -5.4         178.19
2012-Nov-30 20:01:13 993.800 -0.9 79 -4.1         178.19
2012-Nov-30 21:01:13 994.000 -0.4 80 -3.4         178.19
2012-Nov-30 22:01:14 994.500 -0.1 80 -3.1         178.19
2012-Nov-30 23:01:12 994.600 0.2 80 -2.8         178.19

Temperatura Máxima:    Temperatura Mínima:-3°
Presión Máxima:999.800 Hpa    Presión Mínima:992.800 Hpa


Volver